createdAt,value
2022-10-11T00:01:52.827Z,100115.03
2022-10-11T00:06:55.721Z,100120.59
2022-10-11T00:11:58.607Z,100125.44
2022-10-11T00:17:02.722Z,100120.09
2022-10-11T00:22:05.540Z,100129.66
2022-10-11T00:27:08.407Z,100138.53
2022-10-11T00:32:12.737Z,100127.50
2022-10-11T00:37:15.442Z,100142.59
2022-10-11T00:42:18.601Z,100136.94
2022-10-11T00:47:24.475Z,100147.66
2022-10-11T00:52:31.669Z,100142.66
2022-10-11T00:57:36.495Z,100155.03
2022-10-11T01:02:41.305Z,100155.53
2022-10-11T01:07:44.408Z,100155.53
2022-10-11T01:12:52.339Z,100147.38
2022-10-11T01:18:00.890Z,100149.03
2022-10-11T01:23:45.043Z,100149.41
2022-10-11T01:28:51.840Z,100147.06
2022-10-11T01:33:57.871Z,100152.59
2022-10-11T01:39:04.862Z,100159.78
2022-10-11T01:44:08.989Z,100163.50
2022-10-11T01:49:13.256Z,100161.50
2022-10-11T01:54:44.052Z,100165.19
2022-10-11T01:59:59.559Z,100164.53
2022-10-11T02:05:09.872Z,100159.47
2022-10-11T02:10:16.026Z,100161.50
2022-10-11T02:15:20.363Z,100167.19
2022-10-11T02:20:26.482Z,100163.50
2022-10-11T02:25:32.100Z,100170.03
2022-10-11T02:30:35.622Z,100176.56
2022-10-11T02:35:43.083Z,100172.25
2022-10-11T02:40:48.438Z,100171.75
2022-10-11T02:45:53.776Z,100174.94
2022-10-11T02:50:58.575Z,100186.63
2022-10-11T02:56:01.474Z,100181.28
2022-10-11T03:01:04.690Z,100183.31
2022-10-11T03:06:09.340Z,100190.34
2022-10-11T03:11:13.298Z,100199.38
2022-10-11T03:16:16.076Z,100196.69
2022-10-11T03:21:20.191Z,100202.72
2022-10-11T03:26:22.943Z,100206.25
2022-10-11T03:31:25.730Z,100204.09
2022-10-11T03:36:29.871Z,100212.25
2022-10-11T03:41:32.725Z,100224.13
2022-10-11T03:46:35.421Z,100219.97
2022-10-11T03:51:39.582Z,100222.81
2022-10-11T03:56:42.264Z,100227.50
2022-10-11T04:01:45.114Z,100227.19
2022-10-11T04:06:49.313Z,100227.19
2022-10-11T04:11:51.960Z,100226.00
2022-10-11T04:16:57.371Z,100230.69
2022-10-11T04:22:04.392Z,100233.53
2022-10-11T04:27:07.268Z,100244.56
2022-10-11T04:32:09.953Z,100250.41
2022-10-11T04:37:14.046Z,100249.41
2022-10-11T04:42:17.319Z,100251.41
2022-10-11T04:47:19.983Z,100249.22
2022-10-11T04:52:25.930Z,100256.59
2022-10-11T04:57:28.800Z,100256.78
2022-10-11T05:02:31.670Z,100262.94
2022-10-11T05:07:35.909Z,100260.59
2022-10-11T05:12:38.794Z,100260.13
2022-10-11T05:17:41.515Z,100263.78
2022-10-11T05:22:45.635Z,100277.63
2022-10-11T05:27:48.683Z,100272.63
2022-10-11T05:32:51.363Z,100278.78
2022-10-11T05:37:55.545Z,100286.16
2022-10-11T05:42:58.312Z,100289.16
2022-10-11T05:48:00.961Z,100292.69
2022-10-11T05:53:05.445Z,100291.16
2022-10-11T05:58:09.012Z,100303.69
2022-10-11T06:03:13.210Z,100299.19
2022-10-11T06:08:17.379Z,100301.88
2022-10-11T06:13:20.091Z,100305.88
2022-10-11T06:18:22.775Z,100311.41
2022-10-11T06:23:26.929Z,100316.56
2022-10-11T06:28:30.479Z,100331.44
2022-10-11T06:33:33.441Z,100331.44
2022-10-11T06:38:42.289Z,100331.97
2022-10-11T06:43:49.410Z,100338.16
2022-10-11T06:48:52.399Z,100347.84
2022-10-11T06:53:59.815Z,100349.22
2022-10-11T06:59:03.510Z,100356.28
2022-10-11T07:04:06.302Z,100360.16
2022-10-11T07:09:10.821Z,100371.34
2022-10-11T07:14:13.613Z,100374.34
2022-10-11T07:19:16.284Z,100375.19
2022-10-11T07:24:20.343Z,100386.09
2022-10-11T07:29:23.122Z,100387.63
2022-10-11T07:34:25.810Z,100387.38
2022-10-11T07:39:30.954Z,100400.06
2022-10-11T07:44:34.217Z,100386.31
2022-10-11T07:49:36.954Z,100389.94
2022-10-11T07:54:41.113Z,100393.50
2022-10-11T07:59:49.313Z,100394.97
2022-10-11T08:04:52.790Z,100403.66
2022-10-11T08:09:57.174Z,100397.00
2022-10-11T08:14:59.929Z,100395.97
2022-10-11T08:20:02.628Z,100402.97
2022-10-11T08:25:07.615Z,100405.16
2022-10-11T08:30:11.907Z,100415.06
2022-10-11T08:35:14.689Z,100414.53
2022-10-11T08:40:20.930Z,100411.66
2022-10-11T08:45:30.550Z,100416.03
2022-10-11T08:50:33.292Z,100417.69
2022-10-11T08:55:43.926Z,100414.19
2022-10-11T09:00:47.476Z,100423.91
2022-10-11T09:06:03.687Z,100420.22
2022-10-11T09:11:12.286Z,100421.03
2022-10-11T09:16:23.927Z,100423.25
2022-10-11T09:21:33.453Z,100428.13
2022-10-11T09:26:42.832Z,100434.53
2022-10-11T09:31:48.577Z,100431.84
2022-10-11T09:36:55.984Z,100431.84
2022-10-11T09:42:02.583Z,100430.66
2022-10-11T09:47:06.222Z,100435.19
2022-10-11T09:52:15.901Z,100432.16
2022-10-11T09:57:23.196Z,100440.56
2022-10-11T10:02:26.139Z,100448.06
2022-10-11T10:07:29.942Z,100445.72
2022-10-11T10:12:34.129Z,100451.41
2022-10-11T10:17:37.309Z,100441.50
2022-10-11T10:22:40.598Z,100437.16
2022-10-11T10:27:58.289Z,100440.66
2022-10-11T10:33:03.295Z,100438.81
2022-10-11T10:38:13.998Z,100437.81
2022-10-11T10:43:19.947Z,100442.34
2022-10-11T10:48:27.158Z,100436.13
2022-10-11T10:53:34.140Z,100430.75
2022-10-11T10:58:46.836Z,100432.63
2022-10-11T11:03:56.303Z,100428.94
2022-10-11T11:09:07.203Z,100439.47
2022-10-11T11:14:19.786Z,100429.94
2022-10-11T11:19:31.302Z,100428.44
2022-10-11T11:24:41.111Z,100426.13
2022-10-11T11:29:55.238Z,100421.56
2022-10-11T11:35:01.761Z,100417.69
2022-10-11T11:40:07.697Z,100407.97
2022-10-11T11:45:18.884Z,100402.59
2022-10-11T11:50:23.795Z,100405.47
2022-10-11T11:55:32.365Z,100403.13
2022-10-11T12:00:52.636Z,100395.56
2022-10-11T12:06:20.875Z,100391.88
2022-10-11T12:11:29.497Z,100385.47
2022-10-11T12:17:17.151Z,100386.50
2022-10-11T12:22:38.479Z,100374.75
2022-10-11T12:27:43.870Z,100380.31
2022-10-11T12:32:54.412Z,100368.38
2022-10-11T12:38:07.136Z,100362.13
2022-10-11T12:43:12.808Z,100358.63
2022-10-11T12:48:22.891Z,100356.78
2022-10-11T12:53:39.243Z,100346.88
2022-10-11T12:58:42.297Z,100341.31
2022-10-11T13:03:50.813Z,100339.53
2022-10-11T13:08:56.571Z,100336.22
2022-10-11T13:14:01.093Z,100337.88
2022-10-11T13:19:06.806Z,100328.00
2022-10-11T13:24:13.163Z,100325.03
2022-10-11T13:29:17.522Z,100327.28
2022-10-11T13:34:23.580Z,100322.94
2022-10-11T13:39:31.225Z,100326.22
2022-10-11T13:44:35.367Z,100323.31
2022-10-11T13:49:40.157Z,100330.56
2022-10-11T13:54:55.446Z,100316.09
2022-10-11T13:59:58.244Z,100313.06
2022-10-11T14:05:02.861Z,100317.69
2022-10-11T14:10:06.917Z,100308.97
2022-10-11T14:15:25.271Z,100309.81
2022-10-11T14:20:38.713Z,100299.94
2022-10-11T14:25:41.574Z,100299.06
2022-10-11T14:30:44.392Z,100292.41
2022-10-11T14:35:48.573Z,100288.59
2022-10-11T14:40:51.387Z,100284.59
2022-10-11T14:45:54.620Z,100289.97
2022-10-11T14:51:00.467Z,100291.38
2022-10-11T14:56:03.619Z,100291.91
2022-10-11T15:01:06.821Z,100288.56
2022-10-11T15:06:16.568Z,100284.94
2022-10-11T15:11:20.739Z,100276.88
2022-10-11T15:16:23.710Z,100269.38
2022-10-11T15:21:29.579Z,100276.78
2022-10-11T15:26:33.877Z,100272.78
2022-10-11T15:31:36.795Z,100280.00
2022-10-11T15:36:40.840Z,100279.34
2022-10-11T15:41:43.571Z,100278.88
2022-10-11T15:46:46.347Z,100277.19
2022-10-11T15:51:50.424Z,100256.81
2022-10-11T15:56:53.116Z,100275.25
2022-10-11T16:01:55.874Z,100269.59
2022-10-11T16:06:59.946Z,100264.88
2022-10-11T16:12:02.656Z,100267.94
2022-10-11T16:17:05.712Z,100257.53
2022-10-11T16:22:09.830Z,100264.94
2022-10-11T16:27:17.868Z,100262.81
2022-10-11T16:32:22.109Z,100271.38
2022-10-11T16:37:26.269Z,100277.94
2022-10-11T16:42:29.025Z,100272.28
2022-10-11T16:47:31.982Z,100271.97
2022-10-11T16:52:36.091Z,100281.88
2022-10-11T16:57:38.816Z,100283.38
2022-10-11T17:02:41.536Z,100276.28
2022-10-11T17:07:45.615Z,100271.38
2022-10-11T17:12:50.264Z,100274.59
2022-10-11T17:17:56.308Z,100267.94
2022-10-11T17:23:01.024Z,100278.66
2022-10-11T17:28:05.496Z,100274.66
2022-10-11T17:33:28.125Z,100269.50
2022-10-11T17:38:32.255Z,100266.97
2022-10-11T17:43:35.491Z,100267.16
2022-10-11T17:48:39.348Z,100269.69
2022-10-11T17:53:44.056Z,100273.88
2022-10-11T17:58:47.201Z,100284.75
2022-10-11T18:03:52.919Z,100281.59
2022-10-11T18:08:57.832Z,100284.44
2022-10-11T18:14:00.627Z,100275.09
2022-10-11T18:19:04.216Z,100281.44
2022-10-11T18:24:11.671Z,100268.25
2022-10-11T18:29:14.465Z,100270.25
2022-10-11T18:34:17.272Z,100264.06
2022-10-11T18:39:44.177Z,100267.09
2022-10-11T18:44:47.011Z,100266.59
2022-10-11T18:49:49.714Z,100270.31
2022-10-11T18:54:53.815Z,100278.72
2022-10-11T18:59:56.550Z,100274.53
2022-10-11T19:04:59.341Z,100276.72
2022-10-11T19:10:04.313Z,100271.53
2022-10-11T19:15:07.642Z,100267.38
2022-10-11T19:20:12.442Z,100264.00
2022-10-11T19:25:17.172Z,100261.84
2022-10-11T19:30:19.967Z,100263.72
2022-10-11T19:35:22.633Z,100271.09
2022-10-11T19:40:29.151Z,100257.88
2022-10-11T19:45:36.155Z,100253.50
2022-10-11T19:50:39.310Z,100256.72
2022-10-11T19:55:46.438Z,100258.38
2022-10-11T20:00:49.433Z,100266.78
2022-10-11T20:05:52.157Z,100268.63
2022-10-11T20:10:56.446Z,100266.47
2022-10-11T20:16:00.094Z,100263.78
2022-10-11T20:21:06.093Z,100263.13
2022-10-11T20:26:12.714Z,100262.97
2022-10-11T20:31:17.458Z,100262.13
2022-10-11T20:36:21.411Z,100265.84
2022-10-11T20:41:27.688Z,100260.81
2022-10-11T20:46:32.317Z,100255.97
2022-10-11T20:51:36.050Z,100259.84
2022-10-11T20:56:40.515Z,100267.22
2022-10-11T21:01:43.303Z,100265.91
2022-10-11T21:06:46.278Z,100261.22
2022-10-11T21:11:50.355Z,100262.22
2022-10-11T21:16:53.044Z,100256.19
2022-10-11T21:21:55.742Z,100243.84
2022-10-11T21:27:00.834Z,100244.16
2022-10-11T21:32:03.799Z,100236.47
2022-10-11T21:37:06.473Z,100241.19
2022-10-11T21:42:10.529Z,100239.69
2022-10-11T21:47:13.198Z,100235.47
2022-10-11T21:52:16.066Z,100232.28
2022-10-11T21:57:20.078Z,100234.97
2022-10-11T22:02:22.768Z,100234.63
2022-10-11T22:07:25.538Z,100233.81
2022-10-11T22:12:29.562Z,100226.13
2022-10-11T22:17:32.212Z,100229.78
2022-10-11T22:22:35.233Z,100236.31
2022-10-11T22:27:39.469Z,100235.69
2022-10-11T22:32:42.164Z,100242.19
2022-10-11T22:37:44.991Z,100231.84
2022-10-11T22:42:49.323Z,100239.88
2022-10-11T22:47:52.282Z,100239.19
2022-10-11T22:52:54.947Z,100230.97
2022-10-11T22:57:59.022Z,100229.31
2022-10-11T23:03:01.807Z,100235.50
2022-10-11T23:08:04.610Z,100237.84
2022-10-11T23:13:08.722Z,100226.16
2022-10-11T23:18:11.410Z,100233.53
2022-10-11T23:23:14.056Z,100231.81
2022-10-11T23:28:18.103Z,100232.16
2022-10-11T23:33:20.846Z,100233.88
2022-10-11T23:38:23.594Z,100227.84
2022-10-11T23:43:27.606Z,100231.50
2022-10-11T23:48:30.303Z,100235.19
2022-10-11T23:53:33.222Z,100234.50
2022-10-11T23:58:37.474Z,100232.84
